sensor_id;sensor_type;location;lat;lon;timestamp;pressure;altitude;pressure_sealevel;temperature;humidity
63405;BME280;49541;57.840;12.306;2023-04-23T00:02:08;99755.28;;;12.56;43.59
63405;BME280;49541;57.840;12.306;2023-04-23T00:07:11;99742.22;;;12.53;43.08
63405;BME280;49541;57.840;12.306;2023-04-23T00:12:13;99731.88;;;12.75;41.83
63405;BME280;49541;57.840;12.306;2023-04-23T00:17:13;99715.03;;;12.74;42.12
63405;BME280;49541;57.840;12.306;2023-04-23T00:22:14;99713.53;;;12.72;41.96
63405;BME280;49541;57.840;12.306;2023-04-23T00:27:16;99694.66;;;12.81;42.05
63405;BME280;49541;57.840;12.306;2023-04-23T00:32:17;99685.81;;;12.73;41.90
63405;BME280;49541;57.840;12.306;2023-04-23T00:37:17;99672.63;;;12.71;41.93
63405;BME280;49541;57.840;12.306;2023-04-23T00:42:18;99668.81;;;12.49;42.02
63405;BME280;49541;57.840;12.306;2023-04-23T00:47:18;99655.63;;;12.72;41.79
63405;BME280;49541;57.840;12.306;2023-04-23T00:52:19;99648.94;;;12.76;41.58
63405;BME280;49541;57.840;12.306;2023-04-23T00:57:20;99631.59;;;13.28;40.74
63405;BME280;49541;57.840;12.306;2023-04-23T01:02:21;99628.69;;;12.90;41.21
63405;BME280;49541;57.840;12.306;2023-04-23T01:07:21;99622.06;;;12.78;41.50
63405;BME280;49541;57.840;12.306;2023-04-23T01:12:21;99611.91;;;12.65;41.89
63405;BME280;49541;57.840;12.306;2023-04-23T01:17:22;99602.00;;;12.82;41.50
63405;BME280;49541;57.840;12.306;2023-04-23T01:22:22;99607.41;;;12.49;42.27
63405;BME280;49541;57.840;12.306;2023-04-23T01:27:22;99599.41;;;12.57;41.87
63405;BME280;49541;57.840;12.306;2023-04-23T01:32:23;99634.69;;;13.00;41.07
63405;BME280;49541;57.840;12.306;2023-04-23T01:37:24;99621.06;;;13.35;40.25
63405;BME280;49541;57.840;12.306;2023-04-23T01:42:25;99622.72;;;12.80;41.28
63405;BME280;49541;57.840;12.306;2023-04-23T01:47:25;99625.66;;;13.01;41.06
63405;BME280;49541;57.840;12.306;2023-04-23T01:52:25;99612.22;;;12.70;42.03
63405;BME280;49541;57.840;12.306;2023-04-23T01:57:25;99620.78;;;13.13;42.07
63405;BME280;49541;57.840;12.306;2023-04-23T02:02:26;99616.69;;;12.86;43.89
63405;BME280;49541;57.840;12.306;2023-04-23T02:07:26;99612.28;;;13.01;42.64
63405;BME280;49541;57.840;12.306;2023-04-23T02:12:26;99589.81;;;12.79;43.36
63405;BME280;49541;57.840;12.306;2023-04-23T02:17:26;99589.91;;;12.46;46.33
63405;BME280;49541;57.840;12.306;2023-04-23T02:22:27;99581.38;;;12.59;44.96
63405;BME280;49541;57.840;12.306;2023-04-23T02:27:27;99586.72;;;12.51;44.46
63405;BME280;49541;57.840;12.306;2023-04-23T02:32:27;99576.69;;;12.69;43.78
63405;BME280;49541;57.840;12.306;2023-04-23T02:37:27;99562.69;;;12.59;44.67
63405;BME280;49541;57.840;12.306;2023-04-23T02:42:28;99562.47;;;12.69;43.85
63405;BME280;49541;57.840;12.306;2023-04-23T02:47:28;99556.81;;;12.72;43.85
63405;BME280;49541;57.840;12.306;2023-04-23T02:52:29;99537.28;;;12.72;44.04
63405;BME280;49541;57.840;12.306;2023-04-23T02:57:29;99531.34;;;12.45;44.20
63405;BME280;49541;57.840;12.306;2023-04-23T03:02:29;99524.81;;;12.47;43.71
63405;BME280;49541;57.840;12.306;2023-04-23T03:07:30;99512.69;;;12.37;44.12
63405;BME280;49541;57.840;12.306;2023-04-23T03:12:30;99499.84;;;12.40;44.12
63405;BME280;49541;57.840;12.306;2023-04-23T03:17:30;99476.34;;;12.36;44.56
63405;BME280;49541;57.840;12.306;2023-04-23T03:22:30;99473.72;;;12.67;44.11
63405;BME280;49541;57.840;12.306;2023-04-23T03:27:30;99466.19;;;12.70;43.59
63405;BME280;49541;57.840;12.306;2023-04-23T03:32:31;99458.53;;;12.20;44.94
63405;BME280;49541;57.840;12.306;2023-04-23T03:37:31;99453.41;;;12.49;44.44
63405;BME280;49541;57.840;12.306;2023-04-23T03:42:32;99438.16;;;12.27;44.95
63405;BME280;49541;57.840;12.306;2023-04-23T03:47:32;99448.69;;;12.28;44.91
63405;BME280;49541;57.840;12.306;2023-04-23T03:52:32;99435.66;;;12.25;45.15
63405;BME280;49541;57.840;12.306;2023-04-23T03:57:32;99423.50;;;12.23;45.63
63405;BME280;49541;57.840;12.306;2023-04-23T04:02:33;99415.34;;;12.24;45.45
63405;BME280;49541;57.840;12.306;2023-04-23T04:07:33;99415.19;;;12.18;45.28
63405;BME280;49541;57.840;12.306;2023-04-23T04:12:34;99410.47;;;12.28;45.74
63405;BME280;49541;57.840;12.306;2023-04-23T04:17:35;99400.09;;;12.73;44.93
63405;BME280;49541;57.840;12.306;2023-04-23T04:22:35;99407.34;;;12.56;45.65
63405;BME280;49541;57.840;12.306;2023-04-23T04:27:35;99393.31;;;12.31;46.28
63405;BME280;49541;57.840;12.306;2023-04-23T04:32:36;99392.31;;;12.23;46.55
63405;BME280;49541;57.840;12.306;2023-04-23T04:37:37;99387.06;;;12.38;46.30
63405;BME280;49541;57.840;12.306;2023-04-23T04:42:37;99374.66;;;12.85;45.09
63405;BME280;49541;57.840;12.306;2023-04-23T04:47:38;99377.38;;;12.77;45.16
63405;BME280;49541;57.840;12.306;2023-04-23T04:52:38;99376.00;;;12.81;45.00
63405;BME280;49541;57.840;12.306;2023-04-23T04:57:38;99390.22;;;13.27;43.79
63405;BME280;49541;57.840;12.306;2023-04-23T05:02:38;99389.78;;;13.62;43.15
63405;BME280;49541;57.840;12.306;2023-04-23T05:07:39;99393.22;;;14.15;42.47
63405;BME280;49541;57.840;12.306;2023-04-23T05:12:39;99379.09;;;13.62;43.38
63405;BME280;49541;57.840;12.306;2023-04-23T05:17:42;99380.34;;;13.28;44.51
63405;BME280;49541;57.840;12.306;2023-04-23T05:22:42;99377.75;;;13.43;44.35
63405;BME280;49541;57.840;12.306;2023-04-23T05:27:42;99366.75;;;12.91;45.35
63405;BME280;49541;57.840;12.306;2023-04-23T05:32:43;99352.31;;;13.24;45.52
63405;BME280;49541;57.840;12.306;2023-04-23T05:37:43;99388.19;;;13.06;46.92
63405;BME280;49541;57.840;12.306;2023-04-23T05:42:43;99372.06;;;13.23;46.18
63405;BME280;49541;57.840;12.306;2023-04-23T05:47:43;99369.50;;;13.29;47.40
63405;BME280;49541;57.840;12.306;2023-04-23T05:52:43;99373.69;;;13.24;48.73
63405;BME280;49541;57.840;12.306;2023-04-23T05:57:44;99383.44;;;12.94;52.53
63405;BME280;49541;57.840;12.306;2023-04-23T06:02:44;99374.00;;;12.83;54.38
63405;BME280;49541;57.840;12.306;2023-04-23T06:07:44;99381.28;;;12.66;53.91
63405;BME280;49541;57.840;12.306;2023-04-23T06:12:44;99356.00;;;12.77;54.26
63405;BME280;49541;57.840;12.306;2023-04-23T06:17:45;99364.06;;;12.37;55.80
63405;BME280;49541;57.840;12.306;2023-04-23T06:22:45;99357.38;;;12.73;56.72
63405;BME280;49541;57.840;12.306;2023-04-23T06:27:45;99363.31;;;12.83;57.93
63405;BME280;49541;57.840;12.306;2023-04-23T06:32:45;99371.66;;;12.80;58.61
63405;BME280;49541;57.840;12.306;2023-04-23T06:37:45;99371.06;;;12.38;60.39
63405;BME280;49541;57.840;12.306;2023-04-23T06:42:45;99383.09;;;12.34;61.47
63405;BME280;49541;57.840;12.306;2023-04-23T06:47:46;99369.34;;;12.14;64.02
63405;BME280;49541;57.840;12.306;2023-04-23T06:52:48;99374.13;;;12.27;64.80
63405;BME280;49541;57.840;12.306;2023-04-23T06:57:48;99374.81;;;12.21;65.41
63405;BME280;49541;57.840;12.306;2023-04-23T07:02:48;99371.66;;;12.17;65.41
63405;BME280;49541;57.840;12.306;2023-04-23T07:07:48;99361.47;;;12.21;66.45
63405;BME280;49541;57.840;12.306;2023-04-23T07:12:49;99365.34;;;12.10;66.96
63405;BME280;49541;57.840;12.306;2023-04-23T07:17:49;99379.16;;;12.22;68.59
63405;BME280;49541;57.840;12.306;2023-04-23T07:22:49;99378.09;;;11.75;70.11
63405;BME280;49541;57.840;12.306;2023-04-23T07:27:49;99377.88;;;11.85;69.67
63405;BME280;49541;57.840;12.306;2023-04-23T07:32:49;99374.75;;;11.73;72.27
63405;BME280;49541;57.840;12.306;2023-04-23T07:37:50;99366.56;;;11.83;73.00
63405;BME280;49541;57.840;12.306;2023-04-23T07:42:52;99370.72;;;11.94;72.90
63405;BME280;49541;57.840;12.306;2023-04-23T07:47:52;99378.09;;;11.59;73.33
63405;BME280;49541;57.840;12.306;2023-04-23T07:52:53;99378.63;;;11.62;74.24
63405;BME280;49541;57.840;12.306;2023-04-23T07:57:53;99378.09;;;11.75;75.13
63405;BME280;49541;57.840;12.306;2023-04-23T08:02:53;99364.91;;;11.74;76.30
63405;BME280;49541;57.840;12.306;2023-04-23T08:07:53;99370.78;;;11.61;78.64
63405;BME280;49541;57.840;12.306;2023-04-23T08:12:53;99358.38;;;12.09;77.42
63405;BME280;49541;57.840;12.306;2023-04-23T08:17:54;99364.78;;;11.59;77.09
63405;BME280;49541;57.840;12.306;2023-04-23T08:22:54;99366.25;;;11.94;78.94
63405;BME280;49541;57.840;12.306;2023-04-23T08:27:55;99364.25;;;11.88;79.17
63405;BME280;49541;57.840;12.306;2023-04-23T08:32:55;99382.75;;;11.81;79.79
63405;BME280;49541;57.840;12.306;2023-04-23T08:37:56;99369.69;;;12.11;80.25
63405;BME280;49541;57.840;12.306;2023-04-23T08:42:56;99377.19;;;12.07;80.63
63405;BME280;49541;57.840;12.306;2023-04-23T08:47:57;99382.22;;;12.02;81.25
63405;BME280;49541;57.840;12.306;2023-04-23T08:52:58;99378.41;;;11.88;81.56
63405;BME280;49541;57.840;12.306;2023-04-23T08:57:58;99380.25;;;12.36;80.89
63405;BME280;49541;57.840;12.306;2023-04-23T09:03:00;99381.72;;;12.07;82.41
63405;BME280;49541;57.840;12.306;2023-04-23T09:08:00;99365.06;;;11.97;84.07
63405;BME280;49541;57.840;12.306;2023-04-23T09:13:00;99368.63;;;12.28;84.38
63405;BME280;49541;57.840;12.306;2023-04-23T09:18:01;99382.75;;;12.37;85.23
63405;BME280;49541;57.840;12.306;2023-04-23T09:23:12;99374.41;;;12.32;84.95
63405;BME280;49541;57.840;12.306;2023-04-23T09:28:12;99384.72;;;11.96;87.35
63405;BME280;49541;57.840;12.306;2023-04-23T09:33:15;99390.25;;;11.61;90.07
63405;BME280;49541;57.840;12.306;2023-04-23T09:38:15;99401.13;;;11.52;91.33
63405;BME280;49541;57.840;12.306;2023-04-23T09:43:18;99398.13;;;10.47;93.77
63405;BME280;49541;57.840;12.306;2023-04-23T09:48:18;99406.81;;;10.57;94.17
63405;BME280;49541;57.840;12.306;2023-04-23T09:53:19;99412.63;;;10.52;94.03
63405;BME280;49541;57.840;12.306;2023-04-23T09:58:19;99421.97;;;10.64;93.55
63405;BME280;49541;57.840;12.306;2023-04-23T10:03:26;99423.06;;;10.37;94.92
63405;BME280;49541;57.840;12.306;2023-04-23T10:08:27;99418.22;;;10.33;94.19
63405;BME280;49541;57.840;12.306;2023-04-23T10:13:27;99425.56;;;10.47;94.95
63405;BME280;49541;57.840;12.306;2023-04-23T10:18:28;99420.50;;;10.70;92.06
63405;BME280;49541;57.840;12.306;2023-04-23T10:23:30;99427.56;;;11.20;87.33
63405;BME280;49541;57.840;12.306;2023-04-23T10:28:32;99428.41;;;11.04;86.86
63405;BME280;49541;57.840;12.306;2023-04-23T10:33:32;99443.66;;;10.78;87.15
63405;BME280;49541;57.840;12.306;2023-04-23T10:38:33;99434.81;;;10.69;88.09
63405;BME280;49541;57.840;12.306;2023-04-23T10:43:34;99434.91;;;10.51;88.45
63405;BME280;49541;57.840;12.306;2023-04-23T10:48:50;99438.13;;;10.63;88.54
63405;BME280;49541;57.840;12.306;2023-04-23T10:54:04;99431.25;;;10.52;89.17
63405;BME280;49541;57.840;12.306;2023-04-23T10:59:05;99435.91;;;10.50;90.47
63405;BME280;49541;57.840;12.306;2023-04-23T11:04:18;99441.78;;;10.70;88.94
63405;BME280;49541;57.840;12.306;2023-04-23T11:25:03;99442.97;;;10.84;88.22
63405;BME280;49541;57.840;12.306;2023-04-23T11:30:04;99431.31;;;10.69;86.31
63405;BME280;49541;57.840;12.306;2023-04-23T11:35:05;99441.88;;;11.03;86.50
63405;BME280;49541;57.840;12.306;2023-04-23T11:40:07;99445.38;;;11.12;84.36
63405;BME280;49541;57.840;12.306;2023-04-23T11:45:15;99442.34;;;10.90;83.86
63405;BME280;49541;57.840;12.306;2023-04-23T11:50:16;99455.25;;;10.69;85.17
63405;BME280;49541;57.840;12.306;2023-04-23T11:55:17;99448.66;;;10.81;84.51
63405;BME280;49541;57.840;12.306;2023-04-23T12:00:18;99459.22;;;10.64;83.05
63405;BME280;49541;57.840;12.306;2023-04-23T12:05:26;99453.31;;;10.79;82.86
63405;BME280;49541;57.840;12.306;2023-04-23T12:10:27;99459.91;;;10.66;82.17
63405;BME280;49541;57.840;12.306;2023-04-23T12:15:27;99456.03;;;10.53;83.32
63405;BME280;49541;57.840;12.306;2023-04-23T12:20:28;99469.44;;;10.43;82.78
63405;BME280;49541;57.840;12.306;2023-04-23T12:25:29;99471.13;;;10.44;83.17
63405;BME280;49541;57.840;12.306;2023-04-23T12:30:30;99473.22;;;10.66;83.18
63405;BME280;49541;57.840;12.306;2023-04-23T12:35:40;99474.81;;;10.51;80.45
63405;BME280;49541;57.840;12.306;2023-04-23T12:40:40;99479.19;;;10.60;81.65
63405;BME280;49541;57.840;12.306;2023-04-23T12:45:41;99478.28;;;10.86;79.55
63405;BME280;49541;57.840;12.306;2023-04-23T12:50:41;99485.13;;;10.97;78.19
63405;BME280;49541;57.840;12.306;2023-04-23T12:55:41;99480.19;;;11.10;77.75
63405;BME280;49541;57.840;12.306;2023-04-23T13:00:43;99484.09;;;10.81;78.84
63405;BME280;49541;57.840;12.306;2023-04-23T13:05:43;99484.53;;;10.69;79.72
63405;BME280;49541;57.840;12.306;2023-04-23T13:10:43;99485.59;;;10.84;79.21
63405;BME280;49541;57.840;12.306;2023-04-23T13:15:47;99484.91;;;10.74;79.68
63405;BME280;49541;57.840;12.306;2023-04-23T13:20:47;99496.59;;;10.20;81.89
63405;BME280;49541;57.840;12.306;2023-04-23T13:25:47;99485.69;;;10.32;81.63
63405;BME280;49541;57.840;12.306;2023-04-23T13:30:47;99490.25;;;10.21;82.16
63405;BME280;49541;57.840;12.306;2023-04-23T13:35:48;99488.06;;;10.43;82.11
63405;BME280;49541;57.840;12.306;2023-04-23T13:40:48;99485.41;;;10.69;80.89
63405;BME280;49541;57.840;12.306;2023-04-23T13:45:48;99490.47;;;10.28;82.54
63405;BME280;49541;57.840;12.306;2023-04-23T13:50:48;99476.22;;;10.29;83.13
63405;BME280;49541;57.840;12.306;2023-04-23T13:55:48;99477.75;;;10.14;83.63
63405;BME280;49541;57.840;12.306;2023-04-23T14:00:49;99478.47;;;10.50;83.16
63405;BME280;49541;57.840;12.306;2023-04-23T14:05:49;99469.00;;;10.56;82.70
63405;BME280;49541;57.840;12.306;2023-04-23T14:10:49;99472.28;;;10.76;80.90
63405;BME280;49541;57.840;12.306;2023-04-23T14:15:49;99481.00;;;11.02;79.59
63405;BME280;49541;57.840;12.306;2023-04-23T14:20:50;99468.38;;;11.13;77.06
63405;BME280;49541;57.840;12.306;2023-04-23T14:26:03;99465.72;;;11.13;76.42
63405;BME280;49541;57.840;12.306;2023-04-23T14:31:03;99464.38;;;11.09;75.28
63405;BME280;49541;57.840;12.306;2023-04-23T14:36:03;99465.66;;;10.96;75.88
63405;BME280;49541;57.840;12.306;2023-04-23T14:41:04;99455.84;;;11.05;75.11
63405;BME280;49541;57.840;12.306;2023-04-23T14:46:04;99452.53;;;11.03;75.17
63405;BME280;49541;57.840;12.306;2023-04-23T14:51:04;99459.72;;;11.11;73.27
63405;BME280;49541;57.840;12.306;2023-04-23T14:56:05;99458.75;;;11.36;72.05
63405;BME280;49541;57.840;12.306;2023-04-23T15:01:05;99459.56;;;11.28;71.60
63405;BME280;49541;57.840;12.306;2023-04-23T15:06:06;99463.88;;;11.13;71.32
63405;BME280;49541;57.840;12.306;2023-04-23T15:11:06;99469.06;;;11.23;70.97
63405;BME280;49541;57.840;12.306;2023-04-23T15:16:25;99477.69;;;11.09;70.85
63405;BME280;49541;57.840;12.306;2023-04-23T15:21:28;99469.38;;;11.20;70.58
63405;BME280;49541;57.840;12.306;2023-04-23T15:26:28;99470.00;;;10.97;71.62
63405;BME280;49541;57.840;12.306;2023-04-23T15:31:29;99466.47;;;10.89;71.18
63405;BME280;49541;57.840;12.306;2023-04-23T15:36:29;99463.63;;;10.90;71.40
63405;BME280;49541;57.840;12.306;2023-04-23T15:41:32;99464.84;;;11.04;72.13
63405;BME280;49541;57.840;12.306;2023-04-23T15:46:32;99463.72;;;11.39;71.98
63405;BME280;49541;57.840;12.306;2023-04-23T15:51:32;99461.06;;;11.39;70.76
63405;BME280;49541;57.840;12.306;2023-04-23T15:56:33;99462.72;;;11.48;68.93
63405;BME280;49541;57.840;12.306;2023-04-23T16:01:33;99463.22;;;11.44;69.59
63405;BME280;49541;57.840;12.306;2023-04-23T16:06:34;99467.41;;;11.55;69.40
63405;BME280;49541;57.840;12.306;2023-04-23T16:11:37;99467.41;;;12.04;65.22
63405;BME280;49541;57.840;12.306;2023-04-23T16:16:37;99463.34;;;12.33;64.72
63405;BME280;49541;57.840;12.306;2023-04-23T16:21:38;99462.44;;;12.48;64.78
63405;BME280;49541;57.840;12.306;2023-04-23T16:26:38;99463.16;;;12.26;64.38
63405;BME280;49541;57.840;12.306;2023-04-23T16:31:38;99454.59;;;12.47;64.86
63405;BME280;49541;57.840;12.306;2023-04-23T16:36:39;99469.97;;;12.45;64.79
63405;BME280;49541;57.840;12.306;2023-04-23T16:41:39;99455.22;;;12.09;65.58
63405;BME280;49541;57.840;12.306;2023-04-23T16:46:39;99466.28;;;12.54;63.97
63405;BME280;49541;57.840;12.306;2023-04-23T16:51:39;99474.50;;;12.28;64.24
63405;BME280;49541;57.840;12.306;2023-04-23T16:56:39;99461.38;;;12.18;64.82
63405;BME280;49541;57.840;12.306;2023-04-23T17:01:41;99464.75;;;12.52;64.04
63405;BME280;49541;57.840;12.306;2023-04-23T17:06:41;99469.03;;;12.21;63.92
63405;BME280;49541;57.840;12.306;2023-04-23T17:11:41;99461.03;;;12.21;63.67
63405;BME280;49541;57.840;12.306;2023-04-23T17:16:41;99453.41;;;12.49;61.91
63405;BME280;49541;57.840;12.306;2023-04-23T17:21:43;99460.56;;;12.01;63.21
63405;BME280;49541;57.840;12.306;2023-04-23T17:26:43;99448.34;;;12.15;63.87
63405;BME280;49541;57.840;12.306;2023-04-23T17:31:43;99456.16;;;12.33;63.24
63405;BME280;49541;57.840;12.306;2023-04-23T17:36:44;99457.00;;;12.34;63.56
63405;BME280;49541;57.840;12.306;2023-04-23T17:41:44;99452.25;;;12.52;62.83
63405;BME280;49541;57.840;12.306;2023-04-23T17:46:44;99447.72;;;12.61;62.07
63405;BME280;49541;57.840;12.306;2023-04-23T17:51:45;99451.47;;;12.75;62.01
63405;BME280;49541;57.840;12.306;2023-04-23T17:56:45;99456.25;;;12.56;63.01
63405;BME280;49541;57.840;12.306;2023-04-23T18:01:47;99460.59;;;12.49;63.33
63405;BME280;49541;57.840;12.306;2023-04-23T18:06:47;99462.16;;;12.35;63.70
63405;BME280;49541;57.840;12.306;2023-04-23T18:11:47;99471.88;;;12.20;64.41
63405;BME280;49541;57.840;12.306;2023-04-23T18:16:47;99474.91;;;11.76;65.40
63405;BME280;49541;57.840;12.306;2023-04-23T18:21:48;99477.22;;;11.46;66.63
63405;BME280;49541;57.840;12.306;2023-04-23T18:26:49;99485.06;;;11.56;66.29
63405;BME280;49541;57.840;12.306;2023-04-23T18:31:51;99495.56;;;11.65;66.65
63405;BME280;49541;57.840;12.306;2023-04-23T18:36:54;99492.75;;;11.83;65.73
63405;BME280;49541;57.840;12.306;2023-04-23T18:41:55;99486.56;;;11.66;66.30
63405;BME280;49541;57.840;12.306;2023-04-23T18:46:55;99499.06;;;11.58;68.04
63405;BME280;49541;57.840;12.306;2023-04-23T18:51:56;99497.41;;;11.81;66.22
63405;BME280;49541;57.840;12.306;2023-04-23T18:56:56;99492.38;;;11.86;65.84
63405;BME280;49541;57.840;12.306;2023-04-23T19:01:57;99502.91;;;12.13;65.30
63405;BME280;49541;57.840;12.306;2023-04-23T19:06:57;99499.25;;;11.97;64.97
63405;BME280;49541;57.840;12.306;2023-04-23T19:11:57;99496.72;;;11.55;66.17
63405;BME280;49541;57.840;12.306;2023-04-23T19:16:58;99501.38;;;11.53;66.27
63405;BME280;49541;57.840;12.306;2023-04-23T19:21:58;99496.22;;;11.59;65.02
63405;BME280;49541;57.840;12.306;2023-04-23T19:26:59;99490.22;;;11.41;64.86
63405;BME280;49541;57.840;12.306;2023-04-23T19:32:00;99500.88;;;11.33;64.57
63405;BME280;49541;57.840;12.306;2023-04-23T19:37:00;99505.34;;;11.24;64.08
63405;BME280;49541;57.840;12.306;2023-04-23T19:42:00;99490.84;;;11.10;63.89
63405;BME280;49541;57.840;12.306;2023-04-23T19:47:01;99502.31;;;11.11;63.21
63405;BME280;49541;57.840;12.306;2023-04-23T19:52:02;99501.91;;;10.81;63.67
63405;BME280;49541;57.840;12.306;2023-04-23T19:57:02;99505.69;;;10.70;63.94
63405;BME280;49541;57.840;12.306;2023-04-23T20:02:02;99505.44;;;10.55;63.84
63405;BME280;49541;57.840;12.306;2023-04-23T20:07:03;99506.34;;;10.38;63.92
63405;BME280;49541;57.840;12.306;2023-04-23T20:12:03;99506.41;;;10.20;64.32
63405;BME280;49541;57.840;12.306;2023-04-23T20:17:03;99509.13;;;10.10;64.33
63405;BME280;49541;57.840;12.306;2023-04-23T20:22:03;99523.38;;;10.27;64.67
63405;BME280;49541;57.840;12.306;2023-04-23T20:27:04;99515.59;;;10.08;64.80
63405;BME280;49541;57.840;12.306;2023-04-23T20:32:05;99516.56;;;10.24;66.52
63405;BME280;49541;57.840;12.306;2023-04-23T20:37:06;99503.63;;;10.03;67.43
63405;BME280;49541;57.840;12.306;2023-04-23T20:42:07;99504.97;;;9.46;68.49
63405;BME280;49541;57.840;12.306;2023-04-23T20:47:07;99517.25;;;9.29;68.87
63405;BME280;49541;57.840;12.306;2023-04-23T20:52:09;99510.56;;;9.07;68.53
63405;BME280;49541;57.840;12.306;2023-04-23T20:57:09;99502.22;;;9.37;67.64
63405;BME280;49541;57.840;12.306;2023-04-23T21:02:09;99503.38;;;9.17;67.81
63405;BME280;49541;57.840;12.306;2023-04-23T21:07:11;99512.16;;;8.99;67.56
63405;BME280;49541;57.840;12.306;2023-04-23T21:12:11;99501.47;;;8.81;67.51
63405;BME280;49541;57.840;12.306;2023-04-23T21:17:12;99496.09;;;8.73;67.55
63405;BME280;49541;57.840;12.306;2023-04-23T21:22:12;99495.31;;;8.63;67.25
63405;BME280;49541;57.840;12.306;2023-04-23T21:27:13;99494.06;;;8.85;66.91
63405;BME280;49541;57.840;12.306;2023-04-23T21:32:14;99495.66;;;8.78;66.91
63405;BME280;49541;57.840;12.306;2023-04-23T21:37:15;99495.34;;;8.81;68.15
63405;BME280;49541;57.840;12.306;2023-04-23T21:42:15;99494.72;;;8.69;67.99
63405;BME280;49541;57.840;12.306;2023-04-23T21:47:15;99496.72;;;8.85;68.30
63405;BME280;49541;57.840;12.306;2023-04-23T21:52:15;99494.81;;;8.50;69.09
63405;BME280;49541;57.840;12.306;2023-04-23T21:57:16;99481.94;;;8.45;69.39
63405;BME280;49541;57.840;12.306;2023-04-23T22:02:16;99481.16;;;8.25;69.54
63405;BME280;49541;57.840;12.306;2023-04-23T22:07:17;99473.78;;;8.29;69.44
63405;BME280;49541;57.840;12.306;2023-04-23T22:12:18;99473.25;;;8.15;69.72
63405;BME280;49541;57.840;12.306;2023-04-23T22:17:18;99476.97;;;8.42;69.71
63405;BME280;49541;57.840;12.306;2023-04-23T22:22:19;99469.53;;;8.36;70.07
63405;BME280;49541;57.840;12.306;2023-04-23T22:27:19;99474.47;;;8.21;74.14
63405;BME280;49541;57.840;12.306;2023-04-23T22:32:19;99469.53;;;8.36;75.10
63405;BME280;49541;57.840;12.306;2023-04-23T22:37:19;99453.38;;;8.29;77.43
63405;BME280;49541;57.840;12.306;2023-04-23T22:42:20;99469.91;;;8.60;76.58
63405;BME280;49541;57.840;12.306;2023-04-23T22:47:20;99460.41;;;8.20;76.83
63405;BME280;49541;57.840;12.306;2023-04-23T22:52:20;99471.44;;;8.53;74.94
63405;BME280;49541;57.840;12.306;2023-04-23T22:57:21;99468.72;;;8.35;75.68
63405;BME280;49541;57.840;12.306;2023-04-23T23:02:21;99468.03;;;7.96;76.22
63405;BME280;49541;57.840;12.306;2023-04-23T23:07:21;99473.88;;;7.90;75.44
63405;BME280;49541;57.840;12.306;2023-04-23T23:12:21;99475.50;;;8.10;74.14
63405;BME280;49541;57.840;12.306;2023-04-23T23:17:22;99457.63;;;8.12;73.19
63405;BME280;49541;57.840;12.306;2023-04-23T23:22:22;99454.84;;;8.14;72.71
63405;BME280;49541;57.840;12.306;2023-04-23T23:27:22;99453.00;;;7.67;73.12
63405;BME280;49541;57.840;12.306;2023-04-23T23:32:22;99455.81;;;7.56;73.23
63405;BME280;49541;57.840;12.306;2023-04-23T23:37:22;99439.38;;;7.43;72.72
63405;BME280;49541;57.840;12.306;2023-04-23T23:42:23;99446.84;;;7.76;70.88
63405;BME280;49541;57.840;12.306;2023-04-23T23:47:23;99441.56;;;7.57;70.31
63405;BME280;49541;57.840;12.306;2023-04-23T23:52:23;99436.31;;;7.28;71.12
63405;BME280;49541;57.840;12.306;2023-04-23T23:57:23;99426.69;;;7.36;71.15
